Time,TemperatureF,DewpointF,PressureIn,WindDirection,WindDirectionDegrees,WindSpeedMPH,WindSpeedGustMPH,Humidity,HourlyPrecipIn,Conditions,Clouds,dailyrainin,SoftwareType,DateUTC
2013-08-31 00:01:00,68.9,67.1,29.91,NW,321,0.0,0.0,94,0.00,,,0.00,LWC V2.00 B2112,2013-08-31 04:01:00,
2013-08-31 00:02:00,68.9,67.1,29.91,NW,321,0.0,0.0,94,0.00,,,0.00,LWC V2.00 B2112,2013-08-31 04:02:00,
2013-08-31 00:07:00,68.9,67.1,29.91,NW,321,0.0,0.0,94,0.00,,,0.00,LWC V2.00 B2112,2013-08-31 04:07:00,
2013-08-31 00:12:00,68.8,67.0,29.91,NW,321,0.0,0.0,94,0.00,,,0.00,LWC V2.00 B2112,2013-08-31 04:12:00,
2013-08-31 00:17:00,68.8,67.0,29.91,NW,321,0.0,0.0,94,0.00,,,0.00,LWC V2.00 B2112,2013-08-31 04:17:00,
2013-08-31 00:22:00,68.6,66.8,29.91,NW,321,0.0,0.0,94,0.00,,,0.00,LWC V2.00 B2112,2013-08-31 04:22:00,
2013-08-31 00:27:00,68.4,66.6,29.91,NW,321,0.0,0.0,94,0.00,,,0.00,LWC V2.00 B2112,2013-08-31 04:27:00,
2013-08-31 00:32:00,68.4,66.6,29.91,NW,321,0.0,0.0,94,0.00,,,0.00,LWC V2.00 B2112,2013-08-31 04:32:00,
2013-08-31 00:37:00,68.3,66.5,29.91,NW,321,0.0,0.0,94,0.00,,,0.00,LWC V2.00 B2112,2013-08-31 04:37:00,
2013-08-31 00:42:00,68.1,66.3,29.91,NW,321,0.0,0.0,94,0.00,,,0.00,LWC V2.00 B2112,2013-08-31 04:42:00,
2013-08-31 00:47:00,68.1,66.3,29.91,NW,321,0.0,0.0,94,0.00,,,0.00,LWC V2.00 B2112,2013-08-31 04:47:00,
2013-08-31 00:52:00,68.1,66.6,29.91,NW,321,0.0,0.0,95,0.00,,,0.00,LWC V2.00 B2112,2013-08-31 04:52:00,
2013-08-31 00:57:00,67.9,66.4,29.91,NW,321,0.0,0.0,95,0.00,,,0.00,LWC V2.00 B2112,2013-08-31 04:57:00,
2013-08-31 01:02:00,67.9,66.4,29.91,NW,321,0.0,0.0,95,0.00,,,0.00,LWC V2.00 B2112,2013-08-31 05:02:00,
2013-08-31 01:07:00,67.8,66.3,29.91,NW,321,0.0,0.0,95,0.00,,,0.00,LWC V2.00 B2112,2013-08-31 05:07:00,
2013-08-31 01:12:00,67.8,66.3,29.91,NW,321,0.0,0.0,95,0.00,,,0.00,LWC V2.00 B2112,2013-08-31 05:12:00,
2013-08-31 01:17:00,67.6,66.1,29.91,NW,321,0.0,0.0,95,0.00,,,0.00,LWC V2.00 B2112,2013-08-31 05:17:00,
2013-08-31 01:22:00,67.6,66.1,29.91,NW,321,0.0,0.0,95,0.00,,,0.00,LWC V2.00 B2112,2013-08-31 05:22:00,
2013-08-31 01:27:00,67.4,65.9,29.91,NW,321,0.0,0.0,95,0.00,,,0.00,LWC V2.00 B2112,2013-08-31 05:27:00,
2013-08-31 01:32:00,67.4,65.9,29.91,NW,321,0.0,0.0,95,0.00,,,0.00,LWC V2.00 B2112,2013-08-31 05:32:00,
2013-08-31 01:37:00,67.4,65.9,29.91,NW,321,0.0,0.0,95,0.00,,,0.00,LWC V2.00 B2112,2013-08-31 05:37:00,
2013-08-31 01:42:00,67.3,65.8,29.91,NW,321,0.0,0.0,95,0.00,,,0.00,LWC V2.00 B2112,2013-08-31 05:42:00,
2013-08-31 01:47:00,67.3,66.1,29.91,NW,321,0.0,0.0,96,0.00,,,0.00,LWC V2.00 B2112,2013-08-31 05:47:00,
2013-08-31 01:52:00,67.3,66.1,29.91,NW,321,0.0,0.0,96,0.00,,,0.00,LWC V2.00 B2112,2013-08-31 05:52:00,
2013-08-31 01:57:00,67.3,66.1,29.91,NW,321,0.0,0.0,96,0.00,,,0.00,LWC V2.00 B2112,2013-08-31 05:57:00,
2013-08-31 02:02:00,67.3,66.1,29.91,NW,321,0.0,0.0,96,0.00,,,0.00,LWC V2.00 B2112,2013-08-31 06:02:00,
2013-08-31 02:07:00,67.3,66.1,29.91,NW,321,0.0,0.0,96,0.00,,,0.00,LWC V2.00 B2112,2013-08-31 06:07:00,
2013-08-31 02:12:00,67.1,65.9,29.91,NW,321,0.0,0.0,96,0.00,,,0.00,LWC V2.00 B2112,2013-08-31 06:12:00,
2013-08-31 02:17:00,67.1,65.9,29.91,NW,321,0.0,0.0,96,0.00,,,0.00,LWC V2.00 B2112,2013-08-31 06:17:00,
2013-08-31 02:22:00,67.1,65.9,29.91,NW,321,0.0,0.0,96,0.00,,,0.00,LWC V2.00 B2112,2013-08-31 06:22:00,
2013-08-31 02:27:00,66.9,65.7,29.91,NW,321,0.0,0.0,96,0.00,,,0.00,LWC V2.00 B2112,2013-08-31 06:27:00,
2013-08-31 02:32:00,66.9,65.7,29.91,NW,321,0.0,0.0,96,0.00,,,0.00,LWC V2.00 B2112,2013-08-31 06:32:00,
2013-08-31 02:37:00,66.8,65.6,29.91,NW,321,0.0,0.0,96,0.00,,,0.00,LWC V2.00 B2112,2013-08-31 06:37:00,
2013-08-31 02:42:00,66.8,65.6,29.91,NW,321,0.0,0.0,96,0.00,,,0.00,LWC V2.00 B2112,2013-08-31 06:42:00,
2013-08-31 02:47:00,66.8,65.6,29.91,NW,321,0.0,0.0,96,0.00,,,0.00,LWC V2.00 B2112,2013-08-31 06:47:00,
2013-08-31 02:52:00,66.8,65.6,29.91,NW,321,0.0,0.0,96,0.00,,,0.00,LWC V2.00 B2112,2013-08-31 06:52:00,
2013-08-31 02:57:00,66.8,65.6,29.91,NW,321,0.0,0.0,96,0.00,,,0.00,LWC V2.00 B2112,2013-08-31 06:57:00,
2013-08-31 03:02:00,66.6,65.4,29.91,NW,321,0.0,0.0,96,0.00,,,0.00,LWC V2.00 B2112,2013-08-31 07:02:00,
2013-08-31 03:07:00,66.6,65.4,29.91,NW,321,0.0,0.0,96,0.00,,,0.00,LWC V2.00 B2112,2013-08-31 07:07:00,
2013-08-31 03:12:00,66.4,65.2,29.91,NW,321,0.0,0.0,96,0.00,,,0.00,LWC V2.00 B2112,2013-08-31 07:12:00,
2013-08-31 03:17:00,66.4,65.2,29.91,NW,321,0.0,0.0,96,0.00,,,0.00,LWC V2.00 B2112,2013-08-31 07:17:00,
2013-08-31 03:22:00,66.4,65.2,29.91,NW,321,0.0,0.0,96,0.00,,,0.00,LWC V2.00 B2112,2013-08-31 07:22:00,
2013-08-31 03:27:00,66.3,65.1,29.90,NW,321,0.0,0.0,96,0.00,,,0.00,LWC V2.00 B2112,2013-08-31 07:27:00,
2013-08-31 03:32:00,66.3,65.1,29.90,NW,321,0.0,0.0,96,0.00,,,0.00,LWC V2.00 B2112,2013-08-31 07:32:00,
2013-08-31 03:37:00,66.3,65.1,29.90,NW,321,0.0,0.0,96,0.00,,,0.00,LWC V2.00 B2112,2013-08-31 07:37:00,
2013-08-31 03:42:00,66.3,65.1,29.90,NW,321,0.0,0.0,96,0.00,,,0.00,LWC V2.00 B2112,2013-08-31 07:42:00,
2013-08-31 03:47:00,66.3,65.1,29.90,NW,321,0.0,0.0,96,0.00,,,0.00,LWC V2.00 B2112,2013-08-31 07:47:00,
2013-08-31 03:52:00,66.3,65.1,29.90,NW,321,0.0,0.0,96,0.00,,,0.00,LWC V2.00 B2112,2013-08-31 07:52:00,
2013-08-31 03:57:00,66.3,65.4,29.91,NW,321,0.0,0.0,97,0.00,,,0.00,LWC V2.00 B2112,2013-08-31 07:57:00,
2013-08-31 04:02:00,66.3,65.4,29.91,NW,321,0.0,0.0,97,0.00,,,0.00,LWC V2.00 B2112,2013-08-31 08:02:00,
2013-08-31 04:07:00,66.3,65.4,29.91,NW,321,0.0,0.0,97,0.00,,,0.00,LWC V2.00 B2112,2013-08-31 08:07:00,
2013-08-31 04:12:00,66.3,65.4,29.90,NW,321,0.0,0.0,97,0.00,,,0.00,LWC V2.00 B2112,2013-08-31 08:12:00,
2013-08-31 04:17:00,66.3,65.4,29.90,NW,321,0.0,0.0,97,0.00,,,0.00,LWC V2.00 B2112,2013-08-31 08:17:00,
2013-08-31 04:22:00,66.3,65.4,29.90,NW,321,0.0,0.0,97,0.00,,,0.00,LWC V2.00 B2112,2013-08-31 08:22:00,
2013-08-31 04:27:00,66.3,65.4,29.90,NW,321,0.0,0.0,97,0.00,,,0.00,LWC V2.00 B2112,2013-08-31 08:27:00,
2013-08-31 04:32:00,66.1,65.2,29.90,NW,321,0.0,0.0,97,0.00,,,0.00,LWC V2.00 B2112,2013-08-31 08:32:00,
2013-08-31 04:37:00,66.1,65.2,29.90,NW,321,0.0,0.0,97,0.00,,,0.00,LWC V2.00 B2112,2013-08-31 08:37:00,
2013-08-31 04:42:00,66.1,65.2,29.90,NW,321,0.0,0.0,97,0.00,,,0.00,LWC V2.00 B2112,2013-08-31 08:42:00,
2013-08-31 04:47:00,66.0,65.1,29.90,NW,321,0.0,0.0,97,0.00,,,0.00,LWC V2.00 B2112,2013-08-31 08:47:00,
2013-08-31 04:52:00,66.0,65.1,29.90,NW,321,0.0,0.0,97,0.00,,,0.00,LWC V2.00 B2112,2013-08-31 08:52:00,
2013-08-31 04:57:00,66.0,65.1,29.91,NW,321,0.0,0.0,97,0.00,,,0.00,LWC V2.00 B2112,2013-08-31 08:57:00,
2013-08-31 05:02:00,66.0,65.1,29.91,NW,321,0.0,0.0,97,0.00,,,0.00,LWC V2.00 B2112,2013-08-31 09:02:00,
2013-08-31 05:07:00,66.0,65.1,29.91,NW,321,0.0,0.0,97,0.00,,,0.00,LWC V2.00 B2112,2013-08-31 09:07:00,
2013-08-31 05:12:00,66.0,65.1,29.90,NW,321,0.0,0.0,97,0.00,,,0.00,LWC V2.00 B2112,2013-08-31 09:12:00,
2013-08-31 05:17:00,66.1,65.2,29.90,NW,321,0.0,0.0,97,0.00,,,0.00,LWC V2.00 B2112,2013-08-31 09:17:00,
2013-08-31 05:22:00,66.1,65.2,29.90,NW,321,0.0,0.0,97,0.00,,,0.00,LWC V2.00 B2112,2013-08-31 09:22:00,
2013-08-31 05:27:00,66.1,65.2,29.90,NW,321,0.0,0.0,97,0.00,,,0.00,LWC V2.00 B2112,2013-08-31 09:27:00,
2013-08-31 05:32:00,66.1,65.2,29.90,NW,321,0.0,0.0,97,0.00,,,0.00,LWC V2.00 B2112,2013-08-31 09:32:00,
2013-08-31 05:37:00,66.1,65.2,29.90,NW,321,0.0,0.0,97,0.00,,,0.00,LWC V2.00 B2112,2013-08-31 09:37:00,
2013-08-31 05:42:00,66.3,65.4,29.90,NW,321,0.0,0.0,97,0.00,,,0.00,LWC V2.00 B2112,2013-08-31 09:42:00,
2013-08-31 05:47:00,66.3,65.4,29.90,NW,321,0.0,0.0,97,0.00,,,0.00,LWC V2.00 B2112,2013-08-31 09:47:00,
2013-08-31 05:52:00,66.3,65.7,29.90,NW,321,0.0,0.0,98,0.00,,,0.00,LWC V2.00 B2112,2013-08-31 09:52:00,
2013-08-31 05:57:00,66.4,65.8,29.90,NW,321,0.0,0.0,98,0.00,,,0.00,LWC V2.00 B2112,2013-08-31 09:57:00,
2013-08-31 06:02:00,66.6,66.0,29.90,NW,321,0.0,0.0,98,0.00,,,0.00,LWC V2.00 B2112,2013-08-31 10:02:00,
2013-08-31 06:07:00,66.6,66.0,29.90,NW,321,0.0,0.0,98,0.00,,,0.00,LWC V2.00 B2112,2013-08-31 10:07:00,
2013-08-31 06:12:00,66.6,66.0,29.90,NW,321,0.0,0.0,98,0.00,,,0.00,LWC V2.00 B2112,2013-08-31 10:12:00,
2013-08-31 06:17:00,66.6,66.0,29.90,NW,321,0.0,0.0,98,0.00,,,0.00,LWC V2.00 B2112,2013-08-31 10:17:00,
2013-08-31 06:22:00,66.6,66.0,29.90,NW,321,0.0,0.0,98,0.00,,,0.00,LWC V2.00 B2112,2013-08-31 10:22:00,
2013-08-31 06:27:00,66.6,66.0,29.90,NW,321,0.0,0.0,98,0.00,,,0.00,LWC V2.00 B2112,2013-08-31 10:27:00,
2013-08-31 06:32:00,66.6,66.0,29.90,NW,321,0.0,0.0,98,0.00,,,0.00,LWC V2.00 B2112,2013-08-31 10:32:00,
2013-08-31 06:37:00,66.6,66.0,29.90,NW,321,0.0,0.0,98,0.00,,,0.00,LWC V2.00 B2112,2013-08-31 10:37:00,
2013-08-31 06:42:00,66.6,66.0,29.91,NW,321,0.0,0.0,98,0.00,,,0.00,LWC V2.00 B2112,2013-08-31 10:42:00,
2013-08-31 06:47:00,66.6,66.0,29.91,NW,321,0.0,0.0,98,0.00,,,0.00,LWC V2.00 B2112,2013-08-31 10:47:00,
2013-08-31 06:52:00,66.6,66.0,29.91,NW,321,0.0,0.0,98,0.00,,,0.00,LWC V2.00 B2112,2013-08-31 10:52:00,
2013-08-31 06:57:00,66.4,65.8,29.91,NW,321,0.0,0.0,98,0.00,,,0.00,LWC V2.00 B2112,2013-08-31 10:57:00,
2013-08-31 07:02:00,66.4,65.8,29.91,NW,321,0.0,0.0,98,0.00,,,0.00,LWC V2.00 B2112,2013-08-31 11:02:00,
2013-08-31 07:07:00,66.4,65.8,29.91,NW,321,0.0,0.0,98,0.00,,,0.00,LWC V2.00 B2112,2013-08-31 11:07:00,
2013-08-31 07:13:00,66.3,65.7,29.91,NW,321,0.0,0.0,98,0.00,,,0.00,LWC V2.00 B2112,2013-08-31 11:13:00,
2013-08-31 07:18:00,66.3,65.7,29.91,NW,321,0.0,0.0,98,0.00,,,0.00,LWC V2.00 B2112,2013-08-31 11:18:00,
2013-08-31 07:23:00,66.3,65.7,29.91,NW,321,0.0,0.0,98,0.00,,,0.00,LWC V2.00 B2112,2013-08-31 11:23:00,
2013-08-31 07:28:00,66.3,65.7,29.91,NW,321,0.0,0.0,98,0.00,,,0.00,LWC V2.00 B2112,2013-08-31 11:28:00,
2013-08-31 07:33:00,66.4,65.8,29.91,NW,321,0.0,0.0,98,0.00,,,0.00,LWC V2.00 B2112,2013-08-31 11:33:00,
2013-08-31 07:38:00,66.4,65.8,29.91,NW,321,0.0,0.0,98,0.00,,,0.00,LWC V2.00 B2112,2013-08-31 11:38:00,
2013-08-31 07:43:00,66.4,65.8,29.91,NW,321,0.0,0.0,98,0.00,,,0.00,LWC V2.00 B2112,2013-08-31 11:43:00,
2013-08-31 07:48:00,66.4,65.8,29.91,NW,321,0.0,0.0,98,0.00,,,0.00,LWC V2.00 B2112,2013-08-31 11:48:00,
2013-08-31 07:53:00,66.4,65.8,29.91,NW,321,0.0,0.0,98,0.00,,,0.00,LWC V2.00 B2112,2013-08-31 11:53:00,
2013-08-31 07:58:00,66.6,66.0,29.91,NW,321,0.0,0.0,98,0.00,,,0.00,LWC V2.00 B2112,2013-08-31 11:58:00,
2013-08-31 08:03:00,66.6,66.0,29.91,NW,321,0.0,0.0,98,0.00,,,0.00,LWC V2.00 B2112,2013-08-31 12:03:00,
2013-08-31 08:08:00,66.8,66.2,29.91,NW,321,0.0,0.0,98,0.00,,,0.00,LWC V2.00 B2112,2013-08-31 12:08:00,
2013-08-31 08:13:00,66.9,66.6,29.91,NW,321,0.0,0.0,99,0.00,,,0.00,LWC V2.00 B2112,2013-08-31 12:13:00,
2013-08-31 08:18:00,67.1,66.8,29.91,NW,321,0.0,0.0,99,0.00,,,0.00,LWC V2.00 B2112,2013-08-31 12:18:00,
2013-08-31 08:23:00,67.3,67.0,29.91,NW,321,0.0,0.0,99,0.00,,,0.00,LWC V2.00 B2112,2013-08-31 12:23:00,
2013-08-31 08:28:00,67.6,67.3,29.91,NW,321,0.0,0.0,99,0.00,,,0.00,LWC V2.00 B2112,2013-08-31 12:28:00,
2013-08-31 08:33:00,67.9,67.9,29.91,NW,321,0.0,0.0,100,0.00,,,0.00,LWC V2.00 B2112,2013-08-31 12:33:00,
2013-08-31 08:38:00,68.1,67.8,29.91,NW,321,0.0,0.0,99,0.00,,,0.00,LWC V2.00 B2112,2013-08-31 12:38:00,
2013-08-31 08:43:00,68.4,68.4,29.91,NW,321,0.0,0.0,100,0.00,,,0.00,LWC V2.00 B2112,2013-08-31 12:43:00,
2013-08-31 08:48:00,68.8,68.8,29.91,NW,321,0.0,0.0,100,0.00,,,0.00,LWC V2.00 B2112,2013-08-31 12:48:00,
2013-08-31 08:53:00,69.1,69.1,29.91,NW,321,0.0,0.0,100,0.00,,,0.00,LWC V2.00 B2112,2013-08-31 12:53:00,
2013-08-31 08:58:00,69.6,69.6,29.91,NW,321,0.0,0.0,100,0.00,,,0.00,LWC V2.00 B2112,2013-08-31 12:58:00,
2013-08-31 09:03:00,69.8,69.8,29.91,NW,321,0.0,0.0,100,0.00,,,0.00,LWC V2.00 B2112,2013-08-31 13:03:00,
2013-08-31 09:08:00,70.3,70.3,29.91,NW,321,0.0,0.0,100,0.00,,,0.00,LWC V2.00 B2112,2013-08-31 13:08:00,
2013-08-31 09:13:00,70.8,70.8,29.91,NW,321,0.0,0.0,100,0.00,,,0.00,LWC V2.00 B2112,2013-08-31 13:13:00,
2013-08-31 09:18:00,71.1,71.1,29.91,NW,321,0.0,0.0,100,0.00,,,0.00,LWC V2.00 B2112,2013-08-31 13:18:00,
2013-08-31 09:23:00,71.5,71.5,29.91,NW,321,0.0,0.0,100,0.00,,,0.00,LWC V2.00 B2112,2013-08-31 13:23:00,
2013-08-31 09:28:00,71.8,71.8,29.91,NW,321,0.0,0.0,100,0.00,,,0.00,LWC V2.00 B2112,2013-08-31 13:28:00,
2013-08-31 09:33:00,72.1,72.1,29.91,NW,321,0.0,0.0,100,0.00,,,0.00,LWC V2.00 B2112,2013-08-31 13:33:00,
2013-08-31 09:38:00,72.5,72.5,29.91,NW,321,0.0,0.0,100,0.00,,,0.00,LWC V2.00 B2112,2013-08-31 13:38:00,
2013-08-31 09:43:00,72.8,72.8,29.91,NW,321,0.0,0.0,100,0.00,,,0.00,LWC V2.00 B2112,2013-08-31 13:43:00,
2013-08-31 09:48:00,73.2,73.2,29.91,NW,321,0.0,0.0,100,0.00,,,0.00,LWC V2.00 B2112,2013-08-31 13:48:00,
2013-08-31 09:53:00,73.5,73.2,29.91,NW,321,0.0,0.0,99,0.00,,,0.00,LWC V2.00 B2112,2013-08-31 13:53:00,
2013-08-31 09:58:00,73.7,73.4,29.91,NW,321,0.0,0.0,99,0.00,,,0.00,LWC V2.00 B2112,2013-08-31 13:58:00,
2013-08-31 10:03:00,73.9,73.3,29.91,NW,321,0.0,0.0,98,0.00,,,0.00,LWC V2.00 B2112,2013-08-31 14:03:00,
2013-08-31 10:08:00,74.0,73.4,29.91,NW,321,0.0,0.0,98,0.00,,,0.00,LWC V2.00 B2112,2013-08-31 14:08:00,
2013-08-31 10:13:00,74.4,73.5,29.91,NW,321,0.0,0.0,97,0.00,,,0.00,LWC V2.00 B2112,2013-08-31 14:13:00,
2013-08-31 10:18:00,74.9,73.4,29.91,NW,321,0.0,0.0,95,0.00,,,0.00,LWC V2.00 B2112,2013-08-31 14:18:00,
2013-08-31 10:23:00,75.4,72.6,29.91,NW,321,0.0,0.0,91,0.00,,,0.00,LWC V2.00 B2112,2013-08-31 14:23:00,
2013-08-31 10:28:00,76.3,72.5,29.92,NW,321,0.0,0.0,88,0.00,,,0.00,LWC V2.00 B2112,2013-08-31 14:28:00,
2013-08-31 10:33:00,77.2,72.7,29.92,NW,321,0.0,0.0,86,0.00,,,0.00,LWC V2.00 B2112,2013-08-31 14:33:00,
2013-08-31 10:38:00,77.7,72.5,29.92,NW,322,0.0,0.0,84,0.00,,,0.00,LWC V2.00 B2112,2013-08-31 14:38:00,
2013-08-31 10:43:00,77.9,72.3,29.92,NW,322,0.0,0.0,83,0.00,,,0.00,LWC V2.00 B2112,2013-08-31 14:43:00,
2013-08-31 10:48:00,77.7,71.4,29.92,NW,322,0.0,0.0,81,0.00,,,0.00,LWC V2.00 B2112,2013-08-31 14:48:00,
2013-08-31 10:53:00,77.9,71.2,29.92,NW,322,0.0,0.0,80,0.00,,,0.00,LWC V2.00 B2112,2013-08-31 14:53:00,
2013-08-31 10:58:00,77.9,71.6,29.92,NW,322,0.0,0.0,81,0.00,,,0.00,LWC V2.00 B2112,2013-08-31 14:58:00,
2013-08-31 11:03:00,77.9,72.3,29.92,NW,322,0.0,0.0,83,0.00,,,0.00,LWC V2.00 B2112,2013-08-31 15:03:00,
2013-08-31 11:08:00,78.1,72.1,29.92,NW,322,0.0,0.0,82,0.00,,,0.00,LWC V2.00 B2112,2013-08-31 15:08:00,
2013-08-31 11:13:00,78.5,72.5,29.92,NW,322,0.0,0.0,82,0.00,,,0.00,LWC V2.00 B2112,2013-08-31 15:13:00,
2013-08-31 11:18:00,78.8,72.8,29.92,NW,322,0.0,0.0,82,0.00,,,0.00,LWC V2.00 B2112,2013-08-31 15:18:00,
2013-08-31 11:23:00,79.0,72.7,29.92,NW,322,0.0,0.0,81,0.00,,,0.00,LWC V2.00 B2112,2013-08-31 15:23:00,
2013-08-31 11:28:00,79.2,71.3,29.92,NNW,329,0.0,2.0,77,0.00,,,0.00,LWC V2.00 B2112,2013-08-31 15:28:00,
2013-08-31 11:33:00,79.6,72.5,29.92,NNW,329,0.0,1.0,79,0.00,,,0.00,LWC V2.00 B2112,2013-08-31 15:33:00,
2013-08-31 11:38:00,79.8,71.9,29.92,NNW,329,0.0,0.0,77,0.00,,,0.00,LWC V2.00 B2112,2013-08-31 15:38:00,
2013-08-31 11:43:00,80.1,71.8,29.91,NNW,329,0.0,1.0,76,0.00,,,0.00,LWC V2.00 B2112,2013-08-31 15:43:00,
2013-08-31 11:48:00,80.3,72.0,29.91,NNW,329,0.0,0.0,76,0.00,,,0.00,LWC V2.00 B2112,2013-08-31 15:48:00,
2013-08-31 11:53:00,80.5,71.4,29.91,NNW,329,0.0,0.0,74,0.00,,,0.00,LWC V2.00 B2112,2013-08-31 15:53:00,
2013-08-31 11:58:00,80.9,72.6,29.91,NNW,329,0.0,0.0,76,0.00,,,0.00,LWC V2.00 B2112,2013-08-31 15:58:00,
2013-08-31 12:03:00,81.1,70.8,29.91,NNW,329,0.0,0.0,71,0.00,,,0.00,LWC V2.00 B2112,2013-08-31 16:03:00,
2013-08-31 12:08:00,81.2,70.9,29.91,NNW,329,0.0,0.0,71,0.00,,,0.00,LWC V2.00 B2112,2013-08-31 16:08:00,
2013-08-31 12:13:00,81.6,72.5,29.90,NNW,329,0.0,1.0,74,0.00,,,0.00,LWC V2.00 B2112,2013-08-31 16:13:00,
2013-08-31 12:18:00,81.8,72.3,29.90,NNW,329,0.0,1.0,73,0.00,,,0.00,LWC V2.00 B2112,2013-08-31 16:18:00,
2013-08-31 12:23:00,81.8,71.0,29.90,NNW,329,0.0,0.0,70,0.00,,,0.00,LWC V2.00 B2112,2013-08-31 16:23:00,
2013-08-31 12:28:00,82.0,71.2,29.90,NNW,329,0.0,1.0,70,0.00,,,0.00,LWC V2.00 B2112,2013-08-31 16:28:00,
2013-08-31 12:33:00,82.6,69.6,29.90,NNW,329,0.0,0.0,65,0.00,,,0.00,LWC V2.00 B2112,2013-08-31 16:33:00,
2013-08-31 12:38:00,83.2,71.9,29.90,NNW,329,0.0,0.0,69,0.00,,,0.00,LWC V2.00 B2112,2013-08-31 16:38:00,
2013-08-31 12:43:00,83.0,72.2,29.89,NNW,329,0.0,0.0,70,0.00,,,0.00,LWC V2.00 B2112,2013-08-31 16:43:00,
2013-08-31 12:48:00,82.6,71.8,29.89,NNW,329,0.0,0.0,70,0.00,,,0.00,LWC V2.00 B2112,2013-08-31 16:48:00,
2013-08-31 12:53:00,83.4,70.8,29.89,NNW,329,0.0,0.0,66,0.00,,,0.00,LWC V2.00 B2112,2013-08-31 16:53:00,
2013-08-31 12:58:00,83.2,71.9,29.89,NNW,329,0.0,0.0,69,0.00,,,0.00,LWC V2.00 B2112,2013-08-31 16:58:00,
2013-08-31 13:03:00,82.8,71.6,29.89,NNW,329,0.0,0.0,69,0.00,,,0.00,LWC V2.00 B2112,2013-08-31 17:03:00,
2013-08-31 13:08:00,82.4,71.2,29.89,NNW,329,0.0,0.0,69,0.00,,,0.00,LWC V2.00 B2112,2013-08-31 17:08:00,
2013-08-31 13:13:00,82.4,71.6,29.88,NNW,329,0.0,0.0,70,0.00,,,0.00,LWC V2.00 B2112,2013-08-31 17:13:00,
2013-08-31 13:18:00,82.6,70.1,29.88,NNW,329,0.0,1.0,66,0.00,,,0.00,LWC V2.00 B2112,2013-08-31 17:18:00,
2013-08-31 13:23:00,82.8,70.3,29.88,NNW,329,0.0,0.0,66,0.00,,,0.00,LWC V2.00 B2112,2013-08-31 17:23:00,
2013-08-31 13:28:00,83.0,71.3,29.88,NNW,329,0.0,1.0,68,0.00,,,0.00,LWC V2.00 B2112,2013-08-31 17:28:00,
2013-08-31 13:33:00,83.0,70.9,29.88,NNW,329,0.0,2.0,67,0.00,,,0.00,LWC V2.00 B2112,2013-08-31 17:33:00,
2013-08-31 13:38:00,83.2,70.6,29.88,NNW,329,0.0,0.0,66,0.00,,,0.00,LWC V2.00 B2112,2013-08-31 17:38:00,
2013-08-31 13:43:00,83.2,72.8,29.88,NNW,329,0.0,0.0,71,0.00,,,0.00,LWC V2.00 B2112,2013-08-31 17:43:00,
2013-08-31 13:48:00,82.8,73.2,29.88,NNW,329,0.0,0.0,73,0.00,,,0.00,LWC V2.00 B2112,2013-08-31 17:48:00,
2013-08-31 13:53:00,82.4,72.4,29.88,NNW,329,0.0,0.0,72,0.00,,,0.00,LWC V2.00 B2112,2013-08-31 17:53:00,
2013-08-31 13:58:00,82.2,71.4,29.88,NNW,329,0.0,0.0,70,0.00,,,0.00,LWC V2.00 B2112,2013-08-31 17:58:00,
2013-08-31 14:03:00,82.0,72.5,29.88,NNW,329,1.0,2.0,73,0.00,,,0.00,LWC V2.00 B2112,2013-08-31 18:03:00,
2013-08-31 14:08:00,82.0,72.5,29.88,North,10,0.0,2.0,73,0.00,,,0.00,LWC V2.00 B2112,2013-08-31 18:08:00,
2013-08-31 14:13:00,82.4,70.3,29.87,NNE,22,0.0,0.0,67,0.00,,,0.00,LWC V2.00 B2112,2013-08-31 18:13:00,
2013-08-31 14:18:00,82.6,72.6,29.87,NNE,22,0.0,0.0,72,0.00,,,0.00,LWC V2.00 B2112,2013-08-31 18:18:00,
2013-08-31 14:23:00,82.6,73.0,29.87,NE,38,1.0,3.0,73,0.00,,,0.00,LWC V2.00 B2112,2013-08-31 18:23:00,
2013-08-31 14:28:00,82.8,71.1,29.86,NE,38,0.0,1.0,68,0.00,,,0.00,LWC V2.00 B2112,2013-08-31 18:28:00,
2013-08-31 14:33:00,83.0,71.3,29.86,NE,38,0.0,2.0,68,0.00,,,0.00,LWC V2.00 B2112,2013-08-31 18:33:00,
2013-08-31 14:38:00,83.2,71.5,29.86,NE,38,0.0,0.0,68,0.00,,,0.00,LWC V2.00 B2112,2013-08-31 18:38:00,
2013-08-31 14:43:00,83.2,72.8,29.86,NE,38,0.0,0.0,71,0.00,,,0.00,LWC V2.00 B2112,2013-08-31 18:43:00,
2013-08-31 14:48:00,83.2,71.5,29.86,NE,38,0.0,0.0,68,0.00,,,0.00,LWC V2.00 B2112,2013-08-31 18:48:00,
2013-08-31 14:53:00,83.4,71.3,29.86,NE,37,0.0,2.0,67,0.00,,,0.00,LWC V2.00 B2112,2013-08-31 18:53:00,
2013-08-31 14:58:00,83.6,71.5,29.86,NE,37,0.0,0.0,67,0.00,,,0.00,LWC V2.00 B2112,2013-08-31 18:58:00,
2013-08-31 15:03:00,83.6,71.5,29.86,NE,37,0.0,1.0,67,0.00,,,0.00,LWC V2.00 B2112,2013-08-31 19:03:00,
2013-08-31 15:08:00,83.6,71.0,29.86,NE,37,0.0,0.0,66,0.00,,,0.00,LWC V2.00 B2112,2013-08-31 19:08:00,
2013-08-31 15:13:00,83.6,71.9,29.85,NE,37,0.0,0.0,68,0.00,,,0.00,LWC V2.00 B2112,2013-08-31 19:13:00,
2013-08-31 15:18:00,83.6,72.3,29.85,NE,37,0.0,0.0,69,0.00,,,0.00,LWC V2.00 B2112,2013-08-31 19:18:00,
2013-08-31 15:23:00,83.4,73.0,29.85,NE,37,0.0,1.0,71,0.00,,,0.00,LWC V2.00 B2112,2013-08-31 19:23:00,
2013-08-31 15:28:00,83.4,71.7,29.84,NE,37,0.0,1.0,68,0.00,,,0.00,LWC V2.00 B2112,2013-08-31 19:28:00,
2013-08-31 15:33:00,83.8,71.2,29.84,NE,37,0.0,1.0,66,0.00,,,0.00,LWC V2.00 B2112,2013-08-31 19:33:00,
2013-08-31 15:38:00,84.3,72.1,29.84,NE,37,0.0,0.0,67,0.00,,,0.00,LWC V2.00 B2112,2013-08-31 19:38:00,
2013-08-31 15:43:00,84.1,72.4,29.83,NNE,32,0.0,0.0,68,0.00,,,0.00,LWC V2.00 B2112,2013-08-31 19:43:00,
2013-08-31 15:48:00,84.0,71.4,29.83,NNE,32,0.0,0.0,66,0.00,,,0.00,LWC V2.00 B2112,2013-08-31 19:48:00,
2013-08-31 15:53:00,83.8,71.6,29.83,NNE,32,0.0,0.0,67,0.00,,,0.00,LWC V2.00 B2112,2013-08-31 19:53:00,
2013-08-31 15:58:00,83.8,72.5,29.83,NNE,32,0.0,0.0,69,0.00,,,0.00,LWC V2.00 B2112,2013-08-31 19:58:00,
2013-08-31 16:03:00,83.6,72.3,29.83,NNE,32,0.0,1.0,69,0.00,,,0.00,LWC V2.00 B2112,2013-08-31 20:03:00,
2013-08-31 16:08:00,83.4,72.1,29.83,NNE,32,0.0,0.0,69,0.00,,,0.00,LWC V2.00 B2112,2013-08-31 20:08:00,
2013-08-31 16:13:00,83.2,73.2,29.83,NNE,32,0.0,0.0,72,0.00,,,0.00,LWC V2.00 B2112,2013-08-31 20:13:00,
2013-08-31 16:18:00,83.0,72.2,29.83,NNE,32,0.0,0.0,70,0.00,,,0.00,LWC V2.00 B2112,2013-08-31 20:18:00,
2013-08-31 16:23:00,82.8,72.4,29.83,NNE,32,0.0,0.0,71,0.00,,,0.00,LWC V2.00 B2112,2013-08-31 20:23:00,
2013-08-31 16:28:00,82.8,72.8,29.82,NNE,32,0.0,0.0,72,0.00,,,0.00,LWC V2.00 B2112,2013-08-31 20:28:00,
2013-08-31 16:33:00,82.8,72.8,29.82,NNE,32,0.0,0.0,72,0.00,,,0.00,LWC V2.00 B2112,2013-08-31 20:33:00,
2013-08-31 16:38:00,82.8,73.2,29.82,NNE,32,0.0,0.0,73,0.00,,,0.00,LWC V2.00 B2112,2013-08-31 20:38:00,
2013-08-31 16:43:00,82.6,71.8,29.82,NNE,32,0.0,0.0,70,0.00,,,0.00,LWC V2.00 B2112,2013-08-31 20:43:00,
2013-08-31 16:48:00,82.4,71.2,29.82,NNE,32,0.0,0.0,69,0.00,,,0.00,LWC V2.00 B2112,2013-08-31 20:48:00,
2013-08-31 16:53:00,82.6,71.8,29.82,NNE,24,0.0,1.0,70,0.00,,,0.00,LWC V2.00 B2112,2013-08-31 20:53:00,
2013-08-31 16:58:00,82.6,71.4,29.81,NNE,24,0.0,0.0,69,0.00,,,0.00,LWC V2.00 B2112,2013-08-31 20:58:00,
2013-08-31 17:03:00,82.6,72.2,29.81,NNE,24,0.0,0.0,71,0.00,,,0.00,LWC V2.00 B2112,2013-08-31 21:03:00,
2013-08-31 17:08:00,82.6,72.2,29.81,NNE,24,0.0,0.0,71,0.00,,,0.00,LWC V2.00 B2112,2013-08-31 21:08:00,
2013-08-31 17:13:00,82.8,72.4,29.81,NNE,24,0.0,0.0,71,0.00,,,0.00,LWC V2.00 B2112,2013-08-31 21:13:00,
2013-08-31 17:18:00,82.6,72.6,29.81,NNE,24,0.0,0.0,72,0.00,,,0.00,LWC V2.00 B2112,2013-08-31 21:18:00,
2013-08-31 17:23:00,82.6,72.6,29.81,NNE,24,0.0,0.0,72,0.00,,,0.00,LWC V2.00 B2112,2013-08-31 21:23:00,
2013-08-31 17:28:00,82.4,72.4,29.82,NNE,24,0.0,0.0,72,0.00,,,0.00,LWC V2.00 B2112,2013-08-31 21:28:00,
2013-08-31 17:33:00,82.2,71.8,29.82,NNE,24,0.0,0.0,71,0.00,,,0.00,LWC V2.00 B2112,2013-08-31 21:33:00,
2013-08-31 17:38:00,82.2,72.2,29.82,NNE,24,0.0,0.0,72,0.00,,,0.00,LWC V2.00 B2112,2013-08-31 21:38:00,
2013-08-31 17:43:00,82.0,72.1,29.82,SW,227,0.0,0.0,72,0.00,,,0.00,LWC V2.00 B2112,2013-08-31 21:43:00,
2013-08-31 17:48:00,81.8,72.7,29.82,SW,227,0.0,0.0,74,0.00,,,0.00,LWC V2.00 B2112,2013-08-31 21:48:00,
2013-08-31 17:53:00,81.6,71.7,29.82,SW,227,0.0,0.0,72,0.00,,,0.00,LWC V2.00 B2112,2013-08-31 21:53:00,
2013-08-31 17:59:00,81.6,71.7,29.82,SW,227,0.0,0.0,72,0.00,,,0.00,LWC V2.00 B2112,2013-08-31 21:59:00,
2013-08-31 18:04:00,81.6,72.1,29.82,SW,227,0.0,0.0,73,0.00,,,0.00,LWC V2.00 B2112,2013-08-31 22:04:00,
2013-08-31 18:09:00,81.6,72.5,29.82,SW,227,0.0,0.0,74,0.00,,,0.00,LWC V2.00 B2112,2013-08-31 22:09:00,
2013-08-31 18:14:00,81.6,73.3,29.83,SW,227,0.0,0.0,76,0.00,,,0.00,LWC V2.00 B2112,2013-08-31 22:14:00,
2013-08-31 18:19:00,81.4,73.1,29.83,SW,227,0.0,0.0,76,0.00,,,0.00,LWC V2.00 B2112,2013-08-31 22:19:00,
2013-08-31 18:24:00,81.2,73.3,29.83,SW,227,0.0,0.0,77,0.00,,,0.00,LWC V2.00 B2112,2013-08-31 22:24:00,
2013-08-31 18:29:00,81.1,74.3,29.83,SW,227,0.0,0.0,80,0.00,,,0.00,LWC V2.00 B2112,2013-08-31 22:29:00,
2013-08-31 18:34:00,80.9,74.5,29.83,SW,227,0.0,0.0,81,0.00,,,0.00,LWC V2.00 B2112,2013-08-31 22:34:00,
2013-08-31 18:39:00,80.5,73.7,29.83,SW,227,0.0,0.0,80,0.00,,,0.00,LWC V2.00 B2112,2013-08-31 22:39:00,
2013-08-31 18:44:00,80.1,73.7,29.83,SW,227,0.0,0.0,81,0.00,,,0.00,LWC V2.00 B2112,2013-08-31 22:44:00,
2013-08-31 18:49:00,79.9,73.9,29.83,SW,227,0.0,0.0,82,0.00,,,0.00,LWC V2.00 B2112,2013-08-31 22:49:00,
2013-08-31 18:54:00,79.6,73.6,29.83,SW,227,0.0,0.0,82,0.00,,,0.00,LWC V2.00 B2112,2013-08-31 22:54:00,
2013-08-31 18:59:00,79.4,73.8,29.83,SW,227,0.0,0.0,83,0.00,,,0.00,LWC V2.00 B2112,2013-08-31 22:59:00,
2013-08-31 19:04:00,79.0,73.4,29.83,SW,227,0.0,0.0,83,0.00,,,0.00,LWC V2.00 B2112,2013-08-31 23:04:00,
2013-08-31 19:09:00,78.8,73.5,29.83,SW,227,0.0,0.0,84,0.00,,,0.00,LWC V2.00 B2112,2013-08-31 23:09:00,
2013-08-31 19:14:00,78.6,73.7,29.83,SW,227,0.0,0.0,85,0.00,,,0.00,LWC V2.00 B2112,2013-08-31 23:14:00,
2013-08-31 19:19:00,78.5,73.6,29.83,SW,227,0.0,0.0,85,0.00,,,0.00,LWC V2.00 B2112,2013-08-31 23:19:00,
2013-08-31 19:24:00,78.3,73.8,29.83,SW,227,0.0,0.0,86,0.00,,,0.00,LWC V2.00 B2112,2013-08-31 23:24:00,
2013-08-31 19:29:00,78.1,73.6,29.82,SW,227,0.0,0.0,86,0.00,,,0.00,LWC V2.00 B2112,2013-08-31 23:29:00,
2013-08-31 19:34:00,77.9,73.4,29.82,SW,227,0.0,0.0,86,0.00,,,0.00,LWC V2.00 B2112,2013-08-31 23:34:00,
2013-08-31 19:39:00,77.6,73.1,29.82,SW,227,0.0,0.0,86,0.00,,,0.00,LWC V2.00 B2112,2013-08-31 23:39:00,
2013-08-31 19:44:00,77.4,72.9,29.83,SW,227,0.0,0.0,86,0.00,,,0.00,LWC V2.00 B2112,2013-08-31 23:44:00,
2013-08-31 19:49:00,77.2,73.0,29.83,SW,227,0.0,0.0,87,0.00,,,0.00,LWC V2.00 B2112,2013-08-31 23:49:00,
2013-08-31 19:54:00,77.0,72.8,29.83,SW,227,0.0,0.0,87,0.00,,,0.00,LWC V2.00 B2112,2013-08-31 23:54:00,
2013-08-31 19:59:00,76.8,72.6,29.83,SW,227,0.0,0.0,87,0.00,,,0.00,LWC V2.00 B2112,2013-08-31 23:59:00,
2013-08-31 20:04:00,76.7,72.9,29.83,SW,227,0.0,0.0,88,0.00,,,0.00,LWC V2.00 B2112,2013-09-01 00:04:00,
2013-08-31 20:09:00,76.5,72.7,29.83,SW,227,0.0,0.0,88,0.00,,,0.00,LWC V2.00 B2112,2013-09-01 00:09:00,
2013-08-31 20:14:00,76.5,72.7,29.82,SW,227,0.0,0.0,88,0.00,,,0.00,LWC V2.00 B2112,2013-09-01 00:14:00,
2013-08-31 20:19:00,76.3,72.5,29.82,SW,227,0.0,0.0,88,0.00,,,0.00,LWC V2.00 B2112,2013-09-01 00:19:00,
2013-08-31 20:24:00,76.1,72.3,29.82,SW,227,0.0,0.0,88,0.00,,,0.00,LWC V2.00 B2112,2013-09-01 00:24:00,
2013-08-31 20:29:00,76.1,72.3,29.83,SW,227,0.0,0.0,88,0.00,,,0.00,LWC V2.00 B2112,2013-09-01 00:29:00,
2013-08-31 20:34:00,76.0,72.5,29.83,SW,227,0.0,0.0,89,0.00,,,0.00,LWC V2.00 B2112,2013-09-01 00:34:00,
2013-08-31 20:39:00,76.0,72.5,29.83,SW,227,0.0,0.0,89,0.00,,,0.00,LWC V2.00 B2112,2013-09-01 00:39:00,
2013-08-31 20:44:00,75.8,72.3,29.84,SW,227,0.0,0.0,89,0.00,,,0.00,LWC V2.00 B2112,2013-09-01 00:44:00,
2013-08-31 20:49:00,75.6,72.1,29.84,SW,227,0.0,0.0,89,0.00,,,0.00,LWC V2.00 B2112,2013-09-01 00:49:00,
2013-08-31 20:54:00,75.6,72.1,29.84,SW,227,0.0,0.0,89,0.00,,,0.00,LWC V2.00 B2112,2013-09-01 00:54:00,
2013-08-31 20:59:00,75.4,72.3,29.85,SW,227,0.0,0.0,90,0.00,,,0.00,LWC V2.00 B2112,2013-09-01 00:59:00,
2013-08-31 21:04:00,75.4,72.3,29.85,SW,227,0.0,0.0,90,0.00,,,0.00,LWC V2.00 B2112,2013-09-01 01:04:00,
2013-08-31 21:09:00,75.3,72.2,29.85,SW,227,0.0,0.0,90,0.00,,,0.00,LWC V2.00 B2112,2013-09-01 01:09:00,
2013-08-31 21:14:00,75.3,72.2,29.85,SW,227,0.0,0.0,90,0.00,,,0.00,LWC V2.00 B2112,2013-09-01 01:14:00,
2013-08-31 21:19:00,75.3,72.2,29.85,SW,227,0.0,0.0,90,0.00,,,0.00,LWC V2.00 B2112,2013-09-01 01:19:00,
2013-08-31 21:24:00,75.1,72.3,29.85,SW,227,0.0,0.0,91,0.00,,,0.00,LWC V2.00 B2112,2013-09-01 01:24:00,
2013-08-31 21:29:00,75.1,72.3,29.86,SW,227,0.0,0.0,91,0.00,,,0.00,LWC V2.00 B2112,2013-09-01 01:29:00,
2013-08-31 21:34:00,75.1,72.3,29.86,SW,227,0.0,0.0,91,0.00,,,0.00,LWC V2.00 B2112,2013-09-01 01:34:00,
2013-08-31 21:39:00,74.9,72.1,29.86,SW,227,0.0,0.0,91,0.00,,,0.00,LWC V2.00 B2112,2013-09-01 01:39:00,
2013-08-31 21:44:00,74.9,72.1,29.85,SW,227,0.0,0.0,91,0.00,,,0.00,LWC V2.00 B2112,2013-09-01 01:44:00,
2013-08-31 21:49:00,74.7,71.9,29.85,SW,227,0.0,0.0,91,0.00,,,0.00,LWC V2.00 B2112,2013-09-01 01:49:00,
2013-08-31 21:54:00,74.7,71.9,29.85,SW,227,0.0,0.0,91,0.00,,,0.00,LWC V2.00 B2112,2013-09-01 01:54:00,
2013-08-31 21:59:00,74.6,72.1,29.85,SW,227,0.0,0.0,92,0.00,,,0.00,LWC V2.00 B2112,2013-09-01 01:59:00,
2013-08-31 22:04:00,74.6,71.8,29.85,SW,227,0.0,0.0,91,0.00,,,0.00,LWC V2.00 B2112,2013-09-01 02:04:00,
2013-08-31 22:09:00,74.6,72.1,29.85,SW,227,0.0,0.0,92,0.00,,,0.00,LWC V2.00 B2112,2013-09-01 02:09:00,
2013-08-31 22:14:00,74.4,71.9,29.86,SW,227,0.0,0.0,92,0.00,,,0.00,LWC V2.00 B2112,2013-09-01 02:14:00,
2013-08-31 22:19:00,74.4,71.9,29.86,SW,227,0.0,0.0,92,0.00,,,0.00,LWC V2.00 B2112,2013-09-01 02:19:00,
2013-08-31 22:24:00,74.2,71.7,29.86,SW,227,0.0,0.0,92,0.00,,,0.00,LWC V2.00 B2112,2013-09-01 02:24:00,
2013-08-31 22:29:00,74.0,71.5,29.85,SW,227,0.0,0.0,92,0.00,,,0.00,LWC V2.00 B2112,2013-09-01 02:29:00,
2013-08-31 22:34:00,74.0,71.5,29.85,SW,227,0.0,0.0,92,0.00,,,0.00,LWC V2.00 B2112,2013-09-01 02:34:00,
2013-08-31 22:39:00,74.0,71.8,29.85,SW,227,0.0,0.0,93,0.00,,,0.00,LWC V2.00 B2112,2013-09-01 02:39:00,
2013-08-31 22:44:00,74.0,71.8,29.86,SW,227,0.0,0.0,93,0.00,,,0.00,LWC V2.00 B2112,2013-09-01 02:44:00,
2013-08-31 22:49:00,74.0,71.8,29.86,SW,227,0.0,0.0,93,0.00,,,0.00,LWC V2.00 B2112,2013-09-01 02:49:00,
2013-08-31 22:54:00,74.0,71.8,29.86,SW,227,0.0,0.0,93,0.00,,,0.00,LWC V2.00 B2112,2013-09-01 02:54:00,
2013-08-31 22:59:00,73.9,71.7,29.86,SW,227,0.0,0.0,93,0.00,,,0.00,LWC V2.00 B2112,2013-09-01 02:59:00,
2013-08-31 23:04:00,73.9,71.7,29.86,SW,227,0.0,0.0,93,0.00,,,0.00,LWC V2.00 B2112,2013-09-01 03:04:00,
2013-08-31 23:09:00,73.9,72.1,29.86,SW,227,0.0,0.0,94,0.00,,,0.00,LWC V2.00 B2112,2013-09-01 03:09:00,
2013-08-31 23:14:00,73.9,72.1,29.85,SW,227,0.0,0.0,94,0.00,,,0.00,LWC V2.00 B2112,2013-09-01 03:14:00,
2013-08-31 23:19:00,73.9,72.1,29.85,SW,227,0.0,0.0,94,0.00,,,0.00,LWC V2.00 B2112,2013-09-01 03:19:00,
2013-08-31 23:24:00,73.9,72.1,29.85,SW,227,0.0,0.0,94,0.00,,,0.00,LWC V2.00 B2112,2013-09-01 03:24:00,
2013-08-31 23:29:00,73.9,72.1,29.85,SW,227,0.0,0.0,94,0.00,,,0.00,LWC V2.00 B2112,2013-09-01 03:29:00,
2013-08-31 23:34:00,73.9,72.1,29.85,SW,227,0.0,0.0,94,0.00,,,0.00,LWC V2.00 B2112,2013-09-01 03:34:00,
2013-08-31 23:39:00,73.9,72.1,29.85,SW,227,0.0,0.0,94,0.00,,,0.00,LWC V2.00 B2112,2013-09-01 03:39:00,
2013-08-31 23:44:00,73.9,72.1,29.85,SW,227,0.0,0.0,94,0.00,,,0.00,LWC V2.00 B2112,2013-09-01 03:44:00,
2013-08-31 23:49:00,73.9,72.1,29.85,SW,227,0.0,0.0,94,0.00,,,0.00,LWC V2.00 B2112,2013-09-01 03:49:00,
2013-08-31 23:54:00,73.7,71.9,29.85,SW,227,0.0,0.0,94,0.00,,,0.00,LWC V2.00 B2112,2013-09-01 03:54:00,
2013-08-31 23:59:00,73.7,71.9,29.84,SW,227,0.0,0.0,94,0.00,,,0.00,LWC V2.00 B2112,2013-09-01 03:59:00,